Time;durP1;ratioP1;P1;durP2;ratioP2;P2;SDS_P1;SDS_P2;PMS_P1;PMS_P2;Temp;Humidity;BMP_temperature;BMP_pressure;BME280_temperature;BME280_humidity;BME280_pressure;Samples;Min_cycle;Max_cycle;Signal;HPM_P1;HPM_P2
2021/12/23 05:43:31;;;;;;;7.60;3.15;;;;;;;-9.87;68.23;101086.11;1797467;79;21554;-43
2021/12/23 05:46:00;;;;;;;6.22;3.55;;;;;;;-9.83;67.40;101091.98;1766902;79;21555;-36
2021/12/23 05:48:27;;;;;;;7.05;4.53;;;;;;;-9.80;67.08;101101.50;1775039;79;20992;-43
2021/12/23 05:50:53;;;;;;;7.17;3.55;;;;;;;-9.79;67.07;101105.46;1776155;78;21058;-36
2021/12/23 05:53:20;;;;;;;7.47;3.37;;;;;;;-9.76;67.26;101113.33;1777913;79;21663;-43
2021/12/23 05:55:47;;;;;;;8.55;3.60;;;;;;;-9.72;67.47;101111.98;1789852;79;21474;-36
2021/12/23 05:58:14;;;;;;;10.70;3.95;;;;;;;-9.69;67.95;101119.84;1787062;78;21076;-36
2021/12/23 06:00:42;;;;;;;8.38;4.20;;;;;;;-9.66;68.52;101115.97;1781868;78;21093;-43
2021/12/23 06:03:09;;;;;;;6.78;3.87;;;;;;;-9.60;68.78;101123.25;1788875;78;21515;-40
2021/12/23 06:05:38;;;;;;;12.40;4.55;;;;;;;-9.58;69.02;101125.53;1788253;78;21018;-36
2021/12/23 06:08:06;;;;;;;6.28;3.75;;;;;;;-9.58;69.38;101124.27;1780975;79;20982;-36
2021/12/23 06:10:35;;;;;;;8.13;4.10;;;;;;;-9.56;69.67;101132.04;1766714;78;21123;-36
2021/12/23 06:13:02;;;;;;;6.20;3.58;;;;;;;-9.56;69.76;101132.04;1745464;78;21004;-36
2021/12/23 06:15:31;;;;;;;9.80;5.55;;;;;;;-9.55;70.29;101131.28;1768389;79;21554;-36
2021/12/23 06:18:00;;;;;;;9.93;4.15;;;;;;;-9.53;70.80;101130.66;1788329;78;21147;-36
2021/12/23 06:20:28;;;;;;;12.73;5.33;;;;;;;-9.49;70.66;101130.20;1763036;79;21383;-43
2021/12/23 06:23:04;;;;;;;10.13;4.87;;;;;;;-9.45;70.56;101131.35;1764062;78;21498;-42
2021/12/23 06:25:33;;;;;;;10.15;4.53;;;;;;;-9.39;70.64;101137.91;1788554;79;21075;-43
2021/12/23 06:28:04;;;;;;;11.03;6.70;;;;;;;-9.33;70.21;101137.92;1766621;78;21003;-37
2021/12/23 06:30:33;;;;;;;9.05;4.55;;;;;;;-9.29;70.20;101137.09;1763371;78;21524;-36
2021/12/23 06:33:11;;;;;;;10.55;3.75;;;;;;;-9.25;69.89;101137.89;1782168;79;20974;-43
2021/12/23 06:35:42;;;;;;;10.08;5.50;;;;;;;-9.25;69.33;101135.36;1725889;78;21065;-42
2021/12/23 06:38:15;;;;;;;7.97;4.28;;;;;;;-9.25;69.17;101145.50;1761454;79;20990;-42
2021/12/23 06:40:42;;;;;;;9.58;4.17;;;;;;;-9.26;68.98;101139.03;1785515;79;21505;-35
2021/12/23 06:43:09;;;;;;;7.20;3.65;;;;;;;-9.23;69.19;101144.36;1779553;78;21788;-42
2021/12/23 06:45:36;;;;;;;11.00;4.87;;;;;;;-9.21;69.33;101140.34;1773448;78;20993;-35
2021/12/23 06:48:03;;;;;;;7.92;4.92;;;;;;;-9.18;69.35;101138.96;1762535;80;21038;-35
2021/12/23 06:50:30;;;;;;;9.23;4.28;;;;;;;-9.12;69.41;101136.09;1762309;80;21948;-36
2021/12/23 06:53:35;;;;;;;7.78;4.60;;;;;;;-9.04;69.64;101130.44;1759841;79;21658;-42
2021/12/23 06:56:38;;;;;;;8.30;5.30;;;;;;;-8.97;68.73;101133.69;1743090;80;21017;-35
2021/12/23 06:59:05;;;;;;;14.33;4.78;;;;;;;-8.93;68.53;101133.22;1762197;80;21012;-35
2021/12/23 07:01:32;;;;;;;7.53;4.05;;;;;;;-8.89;68.52;101129.30;1755938;80;21088;-35
2021/12/23 07:04:07;;;;;;;7.65;4.30;;;;;;;-8.88;67.53;101135.77;1766670;80;21041;-35
2021/12/23 07:06:35;;;;;;;6.17;3.87;;;;;;;-8.88;67.11;101129.80;1775864;80;20982;-35
2021/12/23 07:09:04;;;;;;;8.63;3.87;;;;;;;-8.89;67.22;101136.52;1758601;80;21061;-35
2021/12/23 07:11:39;;;;;;;7.08;3.95;;;;;;;-8.85;67.03;101142.78;1762177;80;21658;-42
2021/12/23 07:14:08;;;;;;;12.73;4.85;;;;;;;-8.85;67.08;101138.97;1739317;81;20972;-35
2021/12/23 07:16:41;;;;;;;7.10;4.00;;;;;;;-8.82;67.50;101142.15;1743308;80;21487;-35
2021/12/23 07:19:16;;;;;;;7.15;4.22;;;;;;;-8.81;67.56;101145.19;1761391;79;21608;-35
2021/12/23 07:21:55;;;;;;;8.88;4.65;;;;;;;-8.78;67.47;101148.02;1734937;80;21355;-43
2021/12/23 07:25:16;;;;;;;7.78;4.83;;;;;;;-8.74;67.68;101148.82;1760846;80;21636;-36
2021/12/23 07:27:55;;;;;;;7.58;4.00;;;;;;;-8.74;67.31;101147.17;1766949;80;21556;-36
2021/12/23 07:30:21;;;;;;;6.87;4.03;;;;;;;-8.82;67.07;101147.22;1762222;80;21085;-36
2021/12/23 07:32:54;;;;;;;;;;;;;;;-8.87;67.43;101151.53;1763506;80;20969;-43
2021/12/23 07:35:21;;;;;;;10.68;4.35;;;;;;;-8.84;67.34;101147.09;1758991;80;20515;-35
2021/12/23 07:38:08;;;;;;;7.42;4.10;;;;;;;-8.83;67.54;101148.87;1762237;80;21048;-36
2021/12/23 07:41:03;;;;;;;5.55;3.80;;;;;;;-8.77;67.74;101155.76;1747410;80;21014;-36
2021/12/23 07:44:03;;;;;;;11.10;6.30;;;;;;;-8.68;67.19;101160.78;1761100;80;21028;-36
2021/12/23 07:46:40;;;;;;;11.55;5.67;;;;;;;-8.61;67.08;101161.84;1775452;79;21049;-35
2021/12/23 07:49:09;;;;;;;6.78;4.78;;;;;;;-8.56;67.21;101164.80;1764810;79;21065;-43
2021/12/23 07:51:37;;;;;;;8.10;4.03;;;;;;;-8.51;67.07;101166.10;1783954;79;21053;-43
2021/12/23 07:54:04;;;;;;;6.40;4.00;;;;;;;-8.52;66.86;101170.29;1777156;79;20985;-43
2021/12/23 07:56:32;;;;;;;7.10;3.37;;;;;;;-8.48;66.99;101174.86;1762872;79;20986;-36
2021/12/23 07:59:00;;;;;;;8.55;3.83;;;;;;;-8.45;66.58;101170.45;1778004;79;20954;-36
2021/12/23 08:01:29;;;;;;;8.50;4.28;;;;;;;-8.43;66.64;101173.63;1768469;79;21107;-43
2021/12/23 08:03:55;;;;;;;8.75;4.08;;;;;;;-8.40;66.37;101166.68;1783035;78;21390;-42
2021/12/23 08:06:22;;;;;;;7.65;4.05;;;;;;;-8.41;65.82;101169.56;1779530;79;21116;-36
2021/12/23 08:08:50;;;;;;;6.65;4.30;;;;;;;-8.42;65.78;101169.05;1787842;79;21467;-37
2021/12/23 08:11:17;;;;;;;5.75;3.80;;;;;;;-8.43;65.90;101169.81;1783197;78;21657;-35
2021/12/23 08:13:44;;;;;;;7.55;4.35;;;;;;;-8.42;65.62;101166.90;1788321;78;21671;-35
2021/12/23 08:16:11;;;;;;;5.42;3.50;;;;;;;-8.44;66.04;101166.77;1785476;78;21498;-36
2021/12/23 08:18:38;;;;;;;7.47;3.98;;;;;;;-8.45;65.71;101169.19;1780538;78;20946;-36
2021/12/23 08:21:05;;;;;;;11.40;4.03;;;;;;;-8.49;65.67;101170.55;1777848;79;21640;-36
2021/12/23 08:23:31;;;;;;;11.45;3.80;;;;;;;-8.46;66.06;101164.87;1786729;78;20915;-43
2021/12/23 08:26:16;;;;;;;7.83;5.08;;;;;;;-8.43;65.78;101166.39;1779871;79;25832;-36
2021/12/23 08:29:04;;;;;;;8.45;4.08;;;;;;;-8.41;66.22;101161.06;1782932;78;21682;-36
2021/12/23 08:31:31;;;;;;;8.15;4.37;;;;;;;-8.38;65.94;101172.39;1781130;78;21529;-36
2021/12/23 08:33:58;;;;;;;6.12;3.90;;;;;;;-8.35;65.76;101166.64;1782993;79;20989;-44
2021/12/23 08:36:31;;;;;;;4.33;3.20;;;;;;;-8.33;65.55;101154.62;1784340;79;21087;-43
2021/12/23 08:39:05;;;;;;;5.45;2.92;;;;;;;-8.31;66.34;101162.36;1780424;79;20954;-36
2021/12/23 08:42:02;;;;;;;6.12;3.67;;;;;;;-8.31;65.63;101156.02;1780139;79;21021;-36
2021/12/23 08:45:07;;;;;;;6.37;3.80;;;;;;;-8.26;65.63;101155.16;1776061;79;21028;-43
2021/12/23 08:47:35;;;;;;;5.62;2.90;;;;;;;-8.20;64.66;101159.13;1760415;80;21050;-36
2021/12/23 08:50:14;;;;;;;6.17;3.52;;;;;;;-8.15;63.83;101153.19;1758880;79;20998;-37
2021/12/23 08:53:29;;;;;;;9.60;4.95;;;;;;;-8.12;62.57;101149.63;1756593;79;21663;-36
2021/12/23 08:55:59;;;;;;;8.48;3.85;;;;;;;-8.06;62.76;101150.16;1754643;79;21082;-37
2021/12/23 08:58:34;;;;;;;7.00;3.47;;;;;;;-8.00;63.13;101149.80;1734982;79;21532;-43
2021/12/23 09:01:03;;;;;;;7.15;3.72;;;;;;;-7.93;63.03;101144.52;1759275;79;21073;-37
2021/12/23 09:03:32;;;;;;;8.48;4.17;;;;;;;-7.86;60.81;101135.39;1759447;79;21504;-35
2021/12/23 09:05:59;;;;;;;6.58;4.42;;;;;;;-7.79;61.13;101146.20;1757815;80;21050;-42
2021/12/23 09:08:53;;;;;;;14.75;5.22;;;;;;;-7.79;61.13;101146.20;1754738;79;21402;-36
2021/12/23 09:12:14;;;;;;;13.43;7.83;;;;;;;-7.76;60.73;101136.70;1753356;79;21062;-35
2021/12/23 09:18:44;;;;;;;12.05;6.80;;;;;;;-7.67;59.77;101136.20;1754937;79;21060;-43
2021/12/23 09:22:36;;;;;;;8.28;4.53;;;;;;;-7.58;58.82;101143.34;1757101;79;21477;-43
2021/12/23 09:25:38;;;;;;;7.97;3.98;;;;;;;-7.54;58.48;101130.49;1752006;80;21040;-42
2021/12/23 09:32:52;;;;;;;8.18;4.62;;;;;;;-7.44;58.61;101136.88;1758946;79;21106;-35
2021/12/23 09:35:41;;;;;;;8.05;4.28;;;;;;;-7.32;58.73;101133.20;1755976;79;21622;-35
2021/12/23 09:38:15;;;;;;;29.67;12.07;;;;;;;-7.19;57.56;101123.28;1756540;79;20997;-42
2021/12/23 09:40:42;;;;;;;9.63;4.53;;;;;;;-7.13;57.63;101126.72;1735014;80;21025;-35
2021/12/23 09:43:11;;;;;;;8.83;4.92;;;;;;;-7.08;57.67;101123.80;1760883;79;20958;-35
2021/12/23 09:45:41;;;;;;;5.80;3.05;;;;;;;-7.04;57.48;101120.75;1769334;79;21050;-43
2021/12/23 09:48:08;;;;;;;7.78;3.80;;;;;;;-7.01;56.35;101119.75;1779840;79;20969;-43
2021/12/23 09:50:39;;;;;;;8.03;3.87;;;;;;;-7.05;56.21;101117.70;1791076;78;21878;-45
2021/12/23 09:53:07;;;;;;;6.70;4.17;;;;;;;-7.09;56.69;101114.77;1792012;78;21054;-43
2021/12/23 09:55:35;;;;;;;6.83;3.25;;;;;;;-7.15;57.10;101114.27;1790298;78;21153;-43
2021/12/23 09:58:04;;;;;;;5.53;3.05;;;;;;;-7.22;56.74;101111.60;1787894;78;21900;-43
2021/12/23 10:00:34;;;;;;;10.18;3.62;;;;;;;-7.31;56.38;101113.36;1742707;80;21046;-43
2021/12/23 10:03:00;;;;;;;5.30;3.17;;;;;;;-7.38;56.59;101109.80;1726108;82;21041;-35
2021/12/23 10:05:30;;;;;;;5.50;3.55;;;;;;;-7.37;56.51;101107.77;1723359;81;21072;-36
2021/12/23 10:07:57;;;;;;;9.75;4.42;;;;;;;-7.31;56.38;101099.38;1728691;81;21061;-36
2021/12/23 10:10:38;;;;;;;8.13;4.75;;;;;;;-7.31;56.38;101099.38;1734637;82;21033;-42
2021/12/23 10:30:51;;;;;;;7.20;4.33;;;;;;;-4.74;50.52;101082.58;1791320;78;21517;-35
2021/12/23 10:33:44;;;;;;;18.48;11.03;;;;;;;-5.12;51.13;101081.90;1775277;78;21944;-36
2021/12/23 10:39:35;;;;;;;8.53;3.10;;;;;;;-5.83;51.68;101094.77;1784265;78;21492;-42
2021/12/23 10:42:21;;;;;;;9.90;4.28;;;;;;;-6.18;51.45;101086.95;1784689;79;21836;-35
2021/12/23 10:45:11;;;;;;;7.53;3.80;;;;;;;-6.45;51.31;101089.47;1785141;78;21041;-35
2021/12/23 10:48:00;;;;;;;12.45;5.35;;;;;;;-6.60;51.97;101086.60;1796168;78;21009;-36
2021/12/23 10:53:28;;;;;;;12.82;5.83;;;;;;;-6.67;52.34;101088.50;1793754;79;20989;-43
2021/12/23 11:03:51;;;;;;;10.05;6.25;;;;;;;-4.26;50.03;101064.78;1797763;78;21030;-36
2021/12/23 11:06:40;;;;;;;5.92;3.90;;;;;;;-3.14;47.19;101060.97;1755519;78;21066;-43
2021/12/23 11:09:51;;;;;;;6.62;3.85;;;;;;;-2.49;46.24;101055.45;1800327;79;21016;-35
2021/12/23 11:32:21;;;;;;;7.97;4.42;;;;;;;-2.10;42.19;101030.13;1733226;81;21042;-38
2021/12/23 11:40:04;;;;;;;7.25;3.67;;;;;;;-1.21;40.54;101013.70;1740323;81;21025;-38
2021/12/23 11:42:37;;;;;;;7.55;4.30;;;;;;;-0.83;39.86;101018.05;1736294;81;21423;-45
2021/12/23 11:45:40;;;;;;;9.13;5.35;;;;;;;-0.70;39.37;101011.03;1742610;81;21124;-37
2021/12/23 11:48:08;;;;;;;9.85;5.05;;;;;;;-0.59;39.50;101013.81;1739020;81;20970;-45
2021/12/23 11:50:52;;;;;;;8.10;5.90;;;;;;;-0.56;39.01;101014.00;1739444;80;21531;-44
2021/12/23 11:53:06;;;;;;;15.18;7.17;;;;;;;-0.42;38.94;101014.75;1774048;78;20986;-42
2021/12/23 11:55:33;;;;;;;8.80;5.17;;;;;;;-0.16;38.72;101011.05;1786687;78;21671;-44
2021/12/23 11:58:01;;;;;;;13.10;4.72;;;;;;;0.03;38.60;101007.38;1789618;78;21025;-44
2021/12/23 12:00:42;;;;;;;5.95;4.37;;;;;;;0.06;37.99;100997.62;1765057;79;21096;-46
2021/12/23 12:03:04;;;;;;;7.20;4.50;;;;;;;0.05;37.78;101003.18;1780388;78;21461;-45
2021/12/23 12:05:38;;;;;;;6.97;4.05;;;;;;;-0.08;38.04;101002.93;1781591;78;21860;-42
2021/12/23 12:08:10;;;;;;;8.08;4.55;;;;;;;-0.15;37.32;101004.70;1756619;79;21407;-45
2021/12/23 12:10:40;;;;;;;10.10;4.72;;;;;;;-0.34;37.56;101005.80;1781510;78;21655;-43
2021/12/23 12:13:10;;;;;;;8.63;3.90;;;;;;;-0.38;37.72;101001.28;1780474;78;21546;-43
2021/12/23 12:15:47;;;;;;;5.80;3.87;;;;;;;-0.21;37.32;100997.94;1776567;78;21336;-46
2021/12/23 12:18:19;;;;;;;6.95;4.97;;;;;;;-0.21;37.15;101004.77;1774977;78;21593;-45
2021/12/23 12:20:55;;;;;;;8.78;6.17;;;;;;;-0.29;37.05;101010.39;1780594;78;21677;-45
2021/12/23 12:23:44;;;;;;;18.52;9.93;;;;;;;-0.45;37.34;101008.17;1738301;79;21065;-38
2021/12/23 12:26:16;;;;;;;9.93;6.62;;;;;;;-0.63;37.50;101019.60;1781995;78;21603;-44
2021/12/23 12:28:50;;;;;;;13.68;8.60;;;;;;;-1.12;36.99;101019.35;1754082;79;21418;-38
2021/12/23 12:31:22;;;;;;;12.10;7.53;;;;;;;-1.59;38.04;101021.69;1757526;79;21537;-37
2021/12/23 12:34:05;;;;;;;12.00;6.22;;;;;;;-1.85;38.83;101023.58;1776832;79;21036;-37
2021/12/23 12:36:35;;;;;;;11.30;7.45;;;;;;;-1.89;39.44;101015.19;1784602;78;20990;-39
2021/12/23 12:39:14;;;;;;;13.30;6.42;;;;;;;-1.82;39.62;101026.31;1761769;79;21501;-37
2021/12/23 12:41:42;;;;;;;18.45;8.45;;;;;;;-1.90;38.95;101030.10;1780660;78;21041;-36
2021/12/23 12:44:25;;;;;;;32.15;12.93;;;;;;;-1.78;39.32;101028.68;1782572;79;21025;-46
2021/12/23 12:47:01;;;;;;;16.40;9.50;;;;;;;-1.53;38.92;101025.91;1725007;81;21100;-38
2021/12/23 12:49:38;;;;;;;12.13;7.65;;;;;;;-1.59;38.05;101020.00;1712620;82;21087;-39
2021/12/23 12:52:34;;;;;;;13.55;8.05;;;;;;;-1.84;38.71;101021.89;1733910;80;21570;-45
2021/12/23 12:55:08;;;;;;;15.80;8.55;;;;;;;-2.26;39.11;101021.91;1725822;81;20957;-35
2021/12/23 12:57:41;;;;;;;11.55;6.70;;;;;;;-2.47;39.88;101021.83;1793962;78;20993;-36
2021/12/23 13:00:27;;;;;;;;;;;;;;;-2.37;40.02;101022.91;1788871;78;20934;-43
2021/12/23 13:03:07;;;;;;;15.10;8.23;;;;;;;-2.43;40.00;101019.95;1777766;78;20130;-37
2021/12/23 13:05:39;;;;;;;12.43;6.37;;;;;;;-2.35;40.38;101019.16;1782542;78;21326;-44
2021/12/23 13:08:29;;;;;;;18.25;8.50;;;;;;;-2.16;39.97;101029.36;1739246;79;21529;-43
2021/12/23 13:11:16;;;;;;;16.75;8.35;;;;;;;-2.32;39.87;101026.65;1773451;79;21104;-44
2021/12/23 13:14:04;;;;;;;18.17;9.57;;;;;;;-2.78;40.59;101026.28;1784544;78;21512;-36
2021/12/23 13:16:36;;;;;;;18.30;9.28;;;;;;;-3.14;41.38;101027.69;1774807;78;21049;-36
2021/12/23 13:19:24;;;;;;;24.05;10.40;;;;;;;-3.24;41.65;101024.55;1741742;79;20955;-44
2021/12/23 13:21:54;;;;;;;27.48;14.55;;;;;;;-3.19;41.92;101023.54;1780810;78;21584;-43
2021/12/23 13:24:22;;;;;;;29.60;15.68;;;;;;;-3.29;41.92;101027.58;1727946;81;20938;-44
2021/12/23 13:26:50;;;;;;;13.68;7.62;;;;;;;-3.49;42.10;101024.95;1711384;82;21085;-43
2021/12/23 13:29:16;;;;;;;15.63;8.90;;;;;;;-3.71;42.64;101032.86;1721474;81;20991;-43
2021/12/23 13:31:45;;;;;;;21.07;11.75;;;;;;;-3.73;43.30;101027.13;1722514;82;21876;-44
2021/12/23 13:34:22;;;;;;;19.50;11.40;;;;;;;-3.71;43.28;101029.38;1744045;81;21585;-36
2021/12/23 13:36:58;;;;;;;20.12;11.40;;;;;;;-3.94;43.45;101031.27;1752179;81;21925;-44
2021/12/23 13:39:28;;;;;;;17.48;11.30;;;;;;;-4.34;43.94;101033.98;1755260;81;20993;-37
2021/12/23 13:41:59;;;;;;;12.28;8.30;;;;;;;-4.78;44.61;101039.33;1760561;81;21561;-44
2021/12/23 13:44:38;;;;;;;11.40;6.78;;;;;;;-5.15;45.42;101039.58;1754502;81;21537;-44
2021/12/23 13:47:19;;;;;;;12.60;7.80;;;;;;;-5.48;46.12;101036.66;1746618;81;21097;-37
2021/12/23 13:49:55;;;;;;;16.57;8.85;;;;;;;-5.82;46.87;101034.09;1759574;81;20982;-37
2021/12/23 13:52:28;;;;;;;25.12;13.38;;;;;;;-6.13;47.71;101034.72;1741939;81;21108;-37
2021/12/23 13:55:03;;;;;;;32.95;18.00;;;;;;;-6.37;48.37;101032.41;1752539;81;20987;-36
2021/12/23 13:57:36;;;;;;;36.10;17.60;;;;;;;-6.61;48.94;101036.45;1752332;81;21053;-37
2021/12/23 14:00:28;;;;;;;30.35;13.53;;;;;;;-6.80;49.67;101037.00;1752535;81;20998;-36
2021/12/23 14:03:12;;;;;;;23.80;10.70;;;;;;;-6.98;50.19;101041.11;1705491;82;21029;-37
2021/12/23 14:05:42;;;;;;;12.45;6.78;;;;;;;-7.24;50.67;101034.30;1720490;83;21458;-36
2021/12/23 14:08:11;;;;;;;12.88;7.10;;;;;;;-7.47;51.30;101038.76;1749225;80;21108;-37
2021/12/23 14:10:40;;;;;;;16.97;8.85;;;;;;;-7.65;51.95;101037.20;1727557;80;21067;-43
2021/12/23 14:13:12;;;;;;;23.50;8.30;;;;;;;-7.79;52.33;101031.86;1720253;82;20986;-46
2021/12/23 14:15:49;;;;;;;15.70;6.00;;;;;;;-7.89;52.71;101034.38;1651649;84;21476;-43
2021/12/23 14:18:32;;;;;;;10.98;5.67;;;;;;;-7.98;53.18;101036.16;1658417;83;21591;-43
2021/12/23 14:23:39;;;;;;;11.95;6.40;;;;;;;-8.25;53.98;101041.03;1753248;80;20993;-37
2021/12/23 14:26:10;;;;;;;12.90;7.35;;;;;;;-8.50;54.90;101035.91;1738734;82;21108;-44
2021/12/23 14:28:49;;;;;;;12.07;6.90;;;;;;;-8.50;54.90;101035.91;1756671;80;21013;-44
2021/12/23 14:31:25;;;;;;;13.95;7.35;;;;;;;-8.57;55.27;101032.33;1780415;80;21088;-44
2021/12/23 14:33:55;;;;;;;14.85;7.42;;;;;;;-8.71;55.94;101033.26;1765681;80;21070;-44
2021/12/23 14:36:32;;;;;;;28.42;6.62;;;;;;;-8.71;55.94;101033.26;1727942;82;21450;-37
2021/12/23 14:39:10;;;;;;;10.93;5.35;;;;;;;-8.82;56.35;101030.53;1741369;79;21255;-37
2021/12/23 14:41:51;;;;;;;17.73;5.50;;;;;;;-8.84;56.71;101032.94;1773692;79;21121;-37
2021/12/23 14:44:29;;;;;;;15.05;5.10;;;;;;;-8.92;56.78;101036.08;1771985;81;21418;-37
2021/12/23 14:47:22;;;;;;;9.75;4.12;;;;;;;-8.95;57.15;101038.71;1734276;82;21062;-43
2021/12/23 14:52:22;;;;;;;10.18;4.53;;;;;;;-9.08;57.52;101025.70;1736823;82;21066;-37
